Terminal Aerodrome Forecast
Issued by NWS

Home | Current Version | Previous Version | Text Only | Print | Product List | Glossary On
Versions: 1 2 3 4 5 6 7 8 9 10 11 12 13
000
FTUS42 KGSP 300500
TAFAND
TAF
KAND 300532Z 3006/3106 09003KT P6SM FEW250
     FM300900 00000KT P6SM FEW250
      TEMPO 3009/3012 4SM BR SCT045
     FM301300 10003KT P6SM SCT250
     FM301800 18006KT P6SM BKN050
     FM310000 00000KT P6SM VCSH BKN060=

USA.gov is the U.S. government's official web portal to all federal, state and local government web resources and services.